createdAt,value
2018-09-14T00:00:23.113Z,28.20
2018-09-14T00:02:54.333Z,26.17
2018-09-14T00:05:25.581Z,27.13
2018-09-14T00:07:56.793Z,27.43
2018-09-14T00:10:28.069Z,26.87
2018-09-14T00:12:59.305Z,24.30
2018-09-14T00:15:30.536Z,25.03
2018-09-14T00:18:01.765Z,24.83
2018-09-14T00:20:33.001Z,24.03
2018-09-14T00:23:04.225Z,23.87
2018-09-14T00:25:35.451Z,23.30
2018-09-14T00:28:06.661Z,22.67
2018-09-14T00:30:37.873Z,24.50
2018-09-14T00:33:09.117Z,26.93
2018-09-14T00:35:40.372Z,24.07
2018-09-14T00:38:11.598Z,24.17
2018-09-14T00:40:43.012Z,21.33
2018-09-14T00:43:14.365Z,22.73
2018-09-14T00:45:45.591Z,22.87
2018-09-14T00:48:16.945Z,25.40
2018-09-14T00:50:48.193Z,20.17
2018-09-14T00:53:19.401Z,23.03
2018-09-14T00:55:50.636Z,21.80
2018-09-14T00:58:21.880Z,23.50
2018-09-14T01:00:53.111Z,21.97
2018-09-14T01:03:24.325Z,23.20
2018-09-14T01:05:55.546Z,21.93
2018-09-14T01:08:26.784Z,22.77
2018-09-14T01:10:58.025Z,21.30
2018-09-14T01:13:29.272Z,22.40
2018-09-14T01:16:00.497Z,22.33
2018-09-14T01:18:31.734Z,20.70
2018-09-14T01:21:02.971Z,22.37
2018-09-14T01:23:34.184Z,21.40
2018-09-14T01:26:05.595Z,22.77
2018-09-14T01:28:36.816Z,21.93
2018-09-14T01:31:08.050Z,19.67
2018-09-14T01:33:39.260Z,22.83
2018-09-14T01:36:11.149Z,23.10
2018-09-14T01:38:42.450Z,26.17
2018-09-14T01:41:13.695Z,22.43
2018-09-14T01:43:44.931Z,19.73
2018-09-14T01:46:16.195Z,23.03
2018-09-14T01:48:47.430Z,22.57
2018-09-14T01:51:18.650Z,22.23
2018-09-14T01:53:49.877Z,23.70
2018-09-14T01:56:21.100Z,23.43
2018-09-14T01:58:52.408Z,25.27
2018-09-14T02:01:23.653Z,23.80
2018-09-14T02:03:54.870Z,26.23
2018-09-14T02:06:26.596Z,25.17
2018-09-14T02:08:57.809Z,25.33
2018-09-14T02:11:29.044Z,25.70
2018-09-14T02:14:00.259Z,22.60
2018-09-14T02:16:31.574Z,25.43
2018-09-14T02:19:02.938Z,24.13
2018-09-14T02:21:34.187Z,25.93
2018-09-14T02:24:05.417Z,26.87
2018-09-14T02:26:36.621Z,27.83
2018-09-14T02:29:07.841Z,24.87
2018-09-14T02:31:39.177Z,26.00
2018-09-14T02:34:10.378Z,23.43
2018-09-14T02:36:41.631Z,23.73
2018-09-14T02:39:12.841Z,28.17
2018-09-14T02:41:44.296Z,22.90
2018-09-14T02:44:15.499Z,24.20
2018-09-14T02:46:46.734Z,25.03
2018-09-14T02:49:17.973Z,25.60
2018-09-14T02:51:49.191Z,23.60
2018-09-14T02:54:20.506Z,24.60
2018-09-14T02:56:51.717Z,28.13
2018-09-14T02:59:22.955Z,27.70
2018-09-14T03:01:54.166Z,26.77
2018-09-14T03:04:25.408Z,23.33
2018-09-14T03:06:56.689Z,27.97
2018-09-14T03:09:27.902Z,26.37
2018-09-14T03:11:59.132Z,25.13
2018-09-14T03:14:30.463Z,25.03
2018-09-14T03:17:01.700Z,26.73
2018-09-14T03:19:33.002Z,24.17
2018-09-14T03:22:04.225Z,26.10
2018-09-14T03:24:35.445Z,25.23
2018-09-14T03:27:06.714Z,23.20
2018-09-14T03:29:37.923Z,24.80
2018-09-14T03:32:09.251Z,24.00
2018-09-14T03:34:40.459Z,21.17
2018-09-14T03:37:11.677Z,22.90
2018-09-14T03:39:42.886Z,23.10
2018-09-14T03:42:14.143Z,25.07
2018-09-14T03:44:45.418Z,23.07
2018-09-14T03:47:16.622Z,25.03
2018-09-14T03:49:47.850Z,22.70
2018-09-14T03:52:19.095Z,24.63
2018-09-14T03:54:50.361Z,24.07
2018-09-14T03:57:21.585Z,22.47
2018-09-14T03:59:52.795Z,21.60
2018-09-14T04:02:24.020Z,25.97
2018-09-14T04:04:55.243Z,25.57
2018-09-14T04:07:26.517Z,23.03
2018-09-14T04:09:57.744Z,22.80
2018-09-14T04:12:28.969Z,25.20
2018-09-14T04:15:00.251Z,24.17
2018-09-14T04:17:31.474Z,24.50
2018-09-14T04:20:02.718Z,23.43
2018-09-14T04:22:33.925Z,24.90
2018-09-14T04:25:05.145Z,24.40
2018-09-14T04:27:36.366Z,27.00
2018-09-14T04:30:07.592Z,32.40
2018-09-14T04:32:38.842Z,30.43
2018-09-14T04:35:10.172Z,29.30
2018-09-14T04:37:41.399Z,30.43
2018-09-14T04:40:12.606Z,27.17
2018-09-14T04:42:43.822Z,29.27
2018-09-14T04:45:15.038Z,28.03
2018-09-14T04:47:46.246Z,25.13
2018-09-14T04:50:17.457Z,28.57
2018-09-14T04:52:48.669Z,29.20
2018-09-14T04:55:19.893Z,33.87
2018-09-14T04:57:51.200Z,35.93
2018-09-14T05:00:22.450Z,29.73
2018-09-14T05:02:53.698Z,33.20
2018-09-14T05:05:24.902Z,30.90
2018-09-14T05:07:56.117Z,33.10
2018-09-14T05:10:27.330Z,34.90
2018-09-14T05:12:58.554Z,33.17
2018-09-14T05:15:29.756Z,36.63
2018-09-14T05:18:02.485Z,33.80
2018-09-14T05:20:33.725Z,37.13
2018-09-14T05:23:04.985Z,38.20
2018-09-14T05:25:36.211Z,36.10
2018-09-14T05:28:07.421Z,38.73
2018-09-14T05:30:38.660Z,40.37
2018-09-14T05:33:09.869Z,37.37
2018-09-14T05:35:41.096Z,38.63
2018-09-14T05:38:12.521Z,42.20
2018-09-14T05:40:43.934Z,38.60
2018-09-14T05:43:15.218Z,38.30
2018-09-14T05:45:47.612Z,40.33
2018-09-14T05:48:18.802Z,38.07
2018-09-14T05:50:51.587Z,40.37
2018-09-14T05:53:22.797Z,42.20
2018-09-14T05:55:54.054Z,46.87
2018-09-14T05:58:25.278Z,43.70
2018-09-14T06:00:56.662Z,41.87
2018-09-14T06:03:27.880Z,36.47
2018-09-14T06:05:59.131Z,43.63
2018-09-14T06:08:30.381Z,42.10
2018-09-14T06:11:01.582Z,41.33
2018-09-14T06:13:32.790Z,47.20
2018-09-14T06:16:04.053Z,42.90
2018-09-14T06:18:35.275Z,43.63
2018-09-14T06:21:06.498Z,40.47
2018-09-14T06:23:37.758Z,43.83
2018-09-14T06:26:08.980Z,44.93
2018-09-14T06:28:40.199Z,42.90
2018-09-14T06:31:11.485Z,42.17
2018-09-14T06:33:42.690Z,41.83
2018-09-14T06:36:13.914Z,44.47
2018-09-14T06:38:45.114Z,45.67
2018-09-14T06:41:16.374Z,46.40
2018-09-14T06:43:47.618Z,43.67
2018-09-14T06:46:18.846Z,47.27
2018-09-14T06:48:50.064Z,43.23
2018-09-14T06:51:21.285Z,46.87
2018-09-14T06:53:52.505Z,41.67
2018-09-14T06:56:23.749Z,39.47
2018-09-14T06:58:54.963Z,40.87
2018-09-14T07:01:26.186Z,39.33
2018-09-14T07:03:57.593Z,40.93
2018-09-14T07:06:28.907Z,38.50
2018-09-14T07:09:00.069Z,43.03
2018-09-14T07:11:31.337Z,41.17
2018-09-14T07:14:02.498Z,50.03
2018-09-14T07:16:33.814Z,43.40
2018-09-14T07:19:05.018Z,47.43
2018-09-14T07:21:36.281Z,48.33
2018-09-14T07:24:07.446Z,44.73
2018-09-14T07:26:38.654Z,51.87
2018-09-14T07:29:09.924Z,42.27
2018-09-14T07:31:41.191Z,43.93
2018-09-14T07:34:12.303Z,42.13
2018-09-14T07:36:43.584Z,41.30
2018-09-14T07:39:14.800Z,42.97
2018-09-14T07:41:46.011Z,39.43
2018-09-14T07:44:17.321Z,40.77
2018-09-14T07:46:48.551Z,39.07
2018-09-14T07:49:19.763Z,37.07
2018-09-14T07:51:50.985Z,38.77
2018-09-14T07:54:22.193Z,37.30
2018-09-14T07:56:53.457Z,40.57
2018-09-14T07:59:24.678Z,37.93
2018-09-14T08:01:55.888Z,34.33
2018-09-14T08:04:27.094Z,33.87
2018-09-14T08:06:58.325Z,34.07
2018-09-14T08:09:29.521Z,38.60
2018-09-14T08:12:00.789Z,34.77
2018-09-14T08:14:31.974Z,36.23
2018-09-14T08:17:03.178Z,37.47
2018-09-14T08:19:34.402Z,33.97
2018-09-14T08:22:05.604Z,34.57
2018-09-14T08:24:36.866Z,32.23
2018-09-14T08:27:08.146Z,34.80
2018-09-14T08:29:39.334Z,35.27
2018-09-14T08:32:10.552Z,33.57
2018-09-14T08:34:41.815Z,32.97
2018-09-14T08:37:13.071Z,30.70
2018-09-14T08:39:44.289Z,33.13
2018-09-14T08:42:15.505Z,33.80
2018-09-14T08:44:46.814Z,30.30
2018-09-14T08:47:18.027Z,28.97
2018-09-14T08:49:49.275Z,30.43
2018-09-14T08:52:20.489Z,30.73
2018-09-14T08:54:51.701Z,30.77
2018-09-14T08:57:23.014Z,28.00
2018-09-14T08:59:54.214Z,27.13
2018-09-14T09:02:25.422Z,28.03
2018-09-14T09:04:56.703Z,24.83
2018-09-14T09:07:27.923Z,28.73
2018-09-14T09:09:59.138Z,28.20
2018-09-14T09:12:30.357Z,24.27
2018-09-14T09:15:01.623Z,26.73
2018-09-14T09:17:32.829Z,23.37
2018-09-14T09:20:04.156Z,27.07
2018-09-14T09:22:35.399Z,25.57
2018-09-14T09:25:06.706Z,23.67
2018-09-14T09:27:37.917Z,23.30
2018-09-14T09:30:09.233Z,23.23
2018-09-14T09:32:40.441Z,24.73
2018-09-14T09:35:11.665Z,23.70
2018-09-14T09:37:42.884Z,26.23
2018-09-14T09:40:14.114Z,25.90
2018-09-14T09:42:45.316Z,27.63
2018-09-14T09:45:16.561Z,26.43
2018-09-14T09:47:47.773Z,26.73
2018-09-14T09:50:19.031Z,25.13
2018-09-14T09:52:50.265Z,26.87
2018-09-14T09:55:21.536Z,25.33
2018-09-14T09:57:52.765Z,25.13
2018-09-14T10:00:29.696Z,23.70
2018-09-14T10:03:06.705Z,23.53
2018-09-14T10:05:43.782Z,24.23
2018-09-14T10:08:15.008Z,26.50
2018-09-14T10:10:46.264Z,25.00
2018-09-14T10:13:17.480Z,25.27
2018-09-14T10:15:48.825Z,23.57
2018-09-14T10:18:20.051Z,21.97
2018-09-14T10:20:51.331Z,24.13
2018-09-14T10:23:22.546Z,26.40
2018-09-14T10:25:53.791Z,26.82
2018-09-14T10:28:25.002Z,27.87
2018-09-14T10:30:56.231Z,26.13
2018-09-14T10:33:27.456Z,28.77
2018-09-14T10:35:58.666Z,27.50
2018-09-14T10:38:29.906Z,28.80
2018-09-14T10:41:01.374Z,28.42
2018-09-14T10:43:32.597Z,27.70
2018-09-14T10:46:03.829Z,24.98
2018-09-14T10:48:35.041Z,25.77
2018-09-14T10:51:06.270Z,29.13
2018-09-14T10:53:37.497Z,25.62
2018-09-14T10:56:08.719Z,24.85
2018-09-14T10:58:42.689Z,24.47
2018-09-14T11:01:14.957Z,27.02
2018-09-14T11:03:46.177Z,26.97
2018-09-14T11:06:17.400Z,24.67
2018-09-14T11:08:48.614Z,24.27
2018-09-14T11:11:19.813Z,23.18
2018-09-14T11:13:51.136Z,23.65
2018-09-14T11:16:22.338Z,20.05
2018-09-14T11:18:53.611Z,21.45
2018-09-14T11:21:24.800Z,21.42
2018-09-14T11:23:56.032Z,23.00
2018-09-14T11:26:27.254Z,21.45
2018-09-14T11:28:58.503Z,20.30
2018-09-14T11:31:29.741Z,20.12
2018-09-14T11:34:01.041Z,21.25
2018-09-14T11:36:32.277Z,20.72
2018-09-14T11:39:03.577Z,20.23
2018-09-14T11:41:34.785Z,20.00
2018-09-14T11:44:05.994Z,20.75
2018-09-14T11:46:37.203Z,19.45
2018-09-14T11:49:08.449Z,18.73
2018-09-14T11:51:39.663Z,17.80
2018-09-14T11:54:10.922Z,17.05
2018-09-14T11:56:42.189Z,18.00
2018-09-14T11:59:13.424Z,21.25
2018-09-14T12:01:44.716Z,19.60
2018-09-14T12:04:15.993Z,19.50
2018-09-14T12:06:47.163Z,15.50
2018-09-14T12:09:18.395Z,15.15
2018-09-14T12:11:49.615Z,14.95
2018-09-14T12:14:20.817Z,16.30
2018-09-14T12:16:52.028Z,15.38
2018-09-14T12:19:23.252Z,16.10
2018-09-14T12:21:54.458Z,14.10
2018-09-14T12:24:25.657Z,14.50
2018-09-14T12:26:56.873Z,16.10
2018-09-14T12:29:28.115Z,15.45
2018-09-14T12:31:59.365Z,14.70
2018-09-14T12:34:30.583Z,15.35
2018-09-14T12:37:01.811Z,13.25
2018-09-14T12:39:33.033Z,12.82
2018-09-14T12:42:04.265Z,14.07
2018-09-14T12:44:35.490Z,14.47
2018-09-14T12:47:06.722Z,14.80
2018-09-14T12:49:37.939Z,12.55
2018-09-14T12:52:09.156Z,13.08
2018-09-14T12:54:40.362Z,12.60
2018-09-14T12:57:11.634Z,12.93
2018-09-14T12:59:42.861Z,14.15
2018-09-14T13:02:14.074Z,15.45
2018-09-14T13:04:45.299Z,16.93
2018-09-14T13:07:16.514Z,14.40
2018-09-14T13:09:47.843Z,11.53
2018-09-14T13:12:19.054Z,12.33
2018-09-14T13:14:50.311Z,11.97
2018-09-14T13:17:21.505Z,11.43
2018-09-14T13:19:52.814Z,10.65
2018-09-14T13:22:24.021Z,12.10
2018-09-14T13:24:55.258Z,12.55
2018-09-14T13:27:26.461Z,12.30
2018-09-14T13:29:57.696Z,12.63
2018-09-14T13:32:28.936Z,12.15
2018-09-14T13:35:00.147Z,52.00
2018-09-14T13:37:31.358Z,14.28
2018-09-14T13:40:02.636Z,12.13
2018-09-14T13:42:33.793Z,12.15
2018-09-14T13:45:05.036Z,11.53
2018-09-14T13:47:36.241Z,12.37
2018-09-14T13:50:07.469Z,12.30
2018-09-14T13:52:38.729Z,12.55
2018-09-14T13:55:09.939Z,12.75
2018-09-14T13:57:41.161Z,12.65
2018-09-14T14:00:12.373Z,13.05
2018-09-14T14:02:43.626Z,10.78
2018-09-14T14:05:14.844Z,11.93
2018-09-14T14:07:46.177Z,10.68
2018-09-14T14:10:17.451Z,10.75
2018-09-14T14:12:48.653Z,11.90
2018-09-14T14:15:19.881Z,10.90
2018-09-14T14:17:51.146Z,12.00
2018-09-14T14:20:22.366Z,11.03
2018-09-14T14:22:53.591Z,10.88
2018-09-14T14:25:24.802Z,10.10
2018-09-14T14:27:56.036Z,10.88
2018-09-14T14:30:27.237Z,10.20
2018-09-14T14:32:58.445Z,11.73
2018-09-14T14:35:29.650Z,10.03
2018-09-14T14:38:00.872Z,9.83
2018-09-14T14:40:32.110Z,10.88
2018-09-14T14:43:03.410Z,10.35
2018-09-14T14:45:35.451Z,9.60
2018-09-14T14:48:06.653Z,9.68
2018-09-14T14:50:37.879Z,11.00
2018-09-14T14:53:09.095Z,8.85
2018-09-14T14:55:40.342Z,10.10
2018-09-14T14:58:11.553Z,10.58
2018-09-14T15:00:42.780Z,10.82
2018-09-14T15:03:13.997Z,9.88
2018-09-14T15:05:45.247Z,9.35
2018-09-14T15:08:16.488Z,8.23
2018-09-14T15:10:48.519Z,11.45
2018-09-14T15:13:19.774Z,9.33
2018-09-14T15:15:51.039Z,9.70
2018-09-14T15:18:22.259Z,9.18
2018-09-14T15:20:53.469Z,8.73
2018-09-14T15:23:24.683Z,9.40
2018-09-14T15:25:55.908Z,8.25
2018-09-14T15:28:27.114Z,9.03
2018-09-14T15:30:58.317Z,8.95
2018-09-14T15:33:29.549Z,8.88
2018-09-14T15:36:00.847Z,8.53
2018-09-14T15:38:32.072Z,7.08
2018-09-14T15:41:03.285Z,8.23
2018-09-14T15:43:34.497Z,7.97
2018-09-14T15:46:05.727Z,9.45
2018-09-14T15:48:36.958Z,7.97
2018-09-14T15:51:08.187Z,66.92
2018-09-14T15:53:39.398Z,18.17
2018-09-14T15:56:10.617Z,8.98
2018-09-14T15:58:41.854Z,9.00
2018-09-14T16:01:13.068Z,8.68
2018-09-14T16:03:44.273Z,8.13
2018-09-14T16:06:15.482Z,8.18
2018-09-14T16:08:46.717Z,8.43
2018-09-14T16:11:18.039Z,8.38
2018-09-14T16:13:49.279Z,8.58
2018-09-14T16:16:20.500Z,8.75
2018-09-14T16:18:51.832Z,8.20
2018-09-14T16:21:23.014Z,9.20
2018-09-14T16:23:54.270Z,13.62
2018-09-14T16:26:25.559Z,14.75
2018-09-14T16:28:56.795Z,14.23
2018-09-14T16:31:28.132Z,13.00
2018-09-14T16:33:59.470Z,13.48
2018-09-14T16:36:30.689Z,14.53
2018-09-14T16:39:02.023Z,14.23
2018-09-14T16:41:33.241Z,12.75
2018-09-14T16:44:04.452Z,17.12
2018-09-14T16:46:35.807Z,14.60
2018-09-14T16:49:07.588Z,15.85
2018-09-14T16:51:38.882Z,17.30
2018-09-14T16:54:10.033Z,18.92
2018-09-14T16:56:41.308Z,17.42
2018-09-14T16:59:12.728Z,18.83
2018-09-14T17:01:43.940Z,17.95
2018-09-14T17:04:15.177Z,17.62
2018-09-14T17:06:46.522Z,18.15
2018-09-14T17:09:17.786Z,18.80
2018-09-14T17:11:49.066Z,16.85
2018-09-14T17:14:20.343Z,16.00
2018-09-14T17:16:51.586Z,16.95
2018-09-14T17:19:22.823Z,18.20
2018-09-14T17:21:54.025Z,17.13
2018-09-14T17:24:25.245Z,17.43
2018-09-14T17:26:56.453Z,18.77
2018-09-14T17:29:27.688Z,17.05
2018-09-14T17:31:58.936Z,16.80
2018-09-14T17:34:30.165Z,18.97
2018-09-14T17:37:01.722Z,20.65
2018-09-14T17:39:32.885Z,17.17
2018-09-14T17:42:04.093Z,19.17
2018-09-14T17:44:35.352Z,17.87
2018-09-14T17:47:06.579Z,17.90
2018-09-14T17:49:37.801Z,17.90
2018-09-14T17:52:09.028Z,19.73
2018-09-14T17:54:40.233Z,19.50
2018-09-14T17:57:11.444Z,17.63
2018-09-14T17:59:42.739Z,19.73
2018-09-14T18:02:14.002Z,19.53
2018-09-14T18:04:45.253Z,19.15
2018-09-14T18:07:16.554Z,17.10
2018-09-14T18:09:47.814Z,20.90
2018-09-14T18:12:19.067Z,21.47
2018-09-14T18:14:50.323Z,19.33
2018-09-14T18:17:21.557Z,18.27
2018-09-14T18:19:52.777Z,18.27
2018-09-14T18:22:23.981Z,19.13
2018-09-14T18:24:55.185Z,18.93
2018-09-14T18:27:26.430Z,18.07
2018-09-14T18:29:57.633Z,16.60
2018-09-14T18:32:28.925Z,19.43
2018-09-14T18:35:00.159Z,17.13
2018-09-14T18:37:31.369Z,17.97
2018-09-14T18:40:02.565Z,20.27
2018-09-14T18:42:33.784Z,16.57
2018-09-14T18:45:05.009Z,18.23
2018-09-14T18:47:36.396Z,17.67
2018-09-14T18:50:07.649Z,16.37
2018-09-14T18:52:38.901Z,19.17
2018-09-14T18:55:10.127Z,18.20
2018-09-14T18:57:41.421Z,20.10
2018-09-14T19:00:12.639Z,20.53
2018-09-14T19:02:43.871Z,21.43
2018-09-14T19:05:15.110Z,19.20
2018-09-14T19:07:46.285Z,19.27
2018-09-14T19:10:17.522Z,18.93
2018-09-14T19:12:48.727Z,18.10
2018-09-14T19:15:20.029Z,18.27
2018-09-14T19:17:51.227Z,17.60
2018-09-14T19:20:22.543Z,18.23
2018-09-14T19:22:53.821Z,16.17
2018-09-14T19:25:25.048Z,18.67
2018-09-14T19:27:56.310Z,16.20
2018-09-14T19:30:27.513Z,17.73
2018-09-14T19:32:58.758Z,17.13
2018-09-14T19:35:29.999Z,18.73
2018-09-14T19:38:01.253Z,17.73
2018-09-14T19:40:32.640Z,16.87
2018-09-14T19:43:03.869Z,16.77
2018-09-14T19:45:35.106Z,16.53
2018-09-14T19:48:06.317Z,18.60
2018-09-14T19:50:37.648Z,15.53
2018-09-14T19:53:08.857Z,16.10
2018-09-14T19:55:40.192Z,17.80
2018-09-14T19:58:11.505Z,16.93
2018-09-14T20:00:42.727Z,17.77
2018-09-14T20:03:13.961Z,16.90
2018-09-14T20:05:45.185Z,16.63
2018-09-14T20:08:16.952Z,16.17
2018-09-14T20:10:48.267Z,17.03
2018-09-14T20:13:19.506Z,17.87
2018-09-14T20:15:50.717Z,17.17
2018-09-14T20:18:21.958Z,17.13
2018-09-14T20:20:53.146Z,16.87
2018-09-14T20:23:24.389Z,17.97
2018-09-14T20:25:55.597Z,19.10
2018-09-14T20:28:26.822Z,15.57
2018-09-14T20:30:58.025Z,17.90
2018-09-14T20:33:29.270Z,17.73
2018-09-14T20:36:00.490Z,17.80
2018-09-14T20:38:31.756Z,19.47
2018-09-14T20:41:03.020Z,16.93
2018-09-14T20:43:34.244Z,20.97
2018-09-14T20:46:05.453Z,21.57
2018-09-14T20:48:36.745Z,17.63
2018-09-14T20:51:07.967Z,17.90
2018-09-14T20:53:39.189Z,18.80
2018-09-14T20:56:10.411Z,18.10
2018-09-14T20:58:41.650Z,17.20
2018-09-14T21:01:12.846Z,17.73
2018-09-14T21:03:44.045Z,18.67
2018-09-14T21:06:15.241Z,20.80
2018-09-14T21:08:46.450Z,21.23
2018-09-14T21:11:17.773Z,18.47
2018-09-14T21:13:48.974Z,18.67
2018-09-14T21:16:20.193Z,19.20
2018-09-14T21:18:51.419Z,19.73
2018-09-14T21:21:25.873Z,17.00
2018-09-14T21:23:57.070Z,20.07
2018-09-14T21:26:28.321Z,19.70
2018-09-14T21:28:59.572Z,20.67
2018-09-14T21:31:30.782Z,17.60
2018-09-14T21:34:02.046Z,18.63
2018-09-14T21:36:33.259Z,18.40
2018-09-14T21:39:04.470Z,21.53
2018-09-14T21:41:35.801Z,19.97
2018-09-14T21:44:07.462Z,22.10
2018-09-14T21:46:38.878Z,18.43
2018-09-14T21:49:10.100Z,17.87
2018-09-14T21:51:41.327Z,18.37
2018-09-14T21:54:12.631Z,19.63
2018-09-14T21:56:43.801Z,22.47
2018-09-14T21:59:15.106Z,16.47
2018-09-14T22:01:46.329Z,17.40
2018-09-14T22:04:17.549Z,16.47
2018-09-14T22:06:48.779Z,16.77
2018-09-14T22:09:20.111Z,17.83
2018-09-14T22:11:51.323Z,17.70
2018-09-14T22:14:22.554Z,18.90
2018-09-14T22:16:53.766Z,16.57
2018-09-14T22:19:24.987Z,18.00
2018-09-14T22:21:56.254Z,17.93
2018-09-14T22:24:27.464Z,18.80
2018-09-14T22:26:58.689Z,17.90
2018-09-14T22:29:29.889Z,19.37
2018-09-14T22:32:01.113Z,22.13
2018-09-14T22:34:32.345Z,24.10
2018-09-14T22:37:03.574Z,20.60
2018-09-14T22:39:34.803Z,18.07
2018-09-14T22:42:06.202Z,20.47
2018-09-14T22:44:37.443Z,19.23
2018-09-14T22:47:08.671Z,18.80
2018-09-14T22:49:39.868Z,17.83
2018-09-14T22:52:11.124Z,22.77
2018-09-14T22:54:42.351Z,19.23
2018-09-14T22:57:13.653Z,20.80
2018-09-14T22:59:44.865Z,21.67
2018-09-14T23:02:16.066Z,17.10
2018-09-14T23:04:47.288Z,21.00
2018-09-14T23:07:18.512Z,17.30
2018-09-14T23:09:49.790Z,17.30
2018-09-14T23:12:21.010Z,17.33
2018-09-14T23:14:52.244Z,18.33
2018-09-14T23:17:23.461Z,18.10
2018-09-14T23:19:54.657Z,19.83
2018-09-14T23:22:25.937Z,16.77
2018-09-14T23:24:57.146Z,17.07
2018-09-14T23:27:28.385Z,19.77
2018-09-14T23:29:59.602Z,16.20
2018-09-14T23:32:30.909Z,17.57
2018-09-14T23:35:02.322Z,16.20
2018-09-14T23:37:33.545Z,16.43
2018-09-14T23:40:04.769Z,15.43
2018-09-14T23:42:35.979Z,18.07
2018-09-14T23:45:07.229Z,17.20
2018-09-14T23:47:38.433Z,16.57
2018-09-14T23:50:09.673Z,17.80
2018-09-14T23:52:40.881Z,17.87
2018-09-14T23:55:12.127Z,18.27
2018-09-14T23:57:43.342Z,16.37
